Главная страница
METAR-TAF:

METAR-TAF

Аэропорты :

Гётеборг-Ландветтер, Швеция

широта: 57-40N, долгота: 012-18E, высота над уровнем моря: 169 м

Текущие метеонаблюдения

Эта сводка был подготовлена 15 минут назад, в 05:50 UTC
Ветер 14 Узел от западный
Температура 10°C
Влажность 82%
Давление 1002 hPa
Видимость 10 км и более
Рассеянная облачность на высоте 2000 фута
Рассеянная облачность на высоте 2500 фута, Кучево-дождевые.
ливневые дожди

METAR: ESGG 230550Z 26014KT 9999 SHRA BKN020 BKN025CB 10/07 Q1002

Время: 08:05 (06:05 UTC)

Прогноз

Эта сводка был подготовлена 35 минут назад, в 05:30 UTC
Прогноз действительный с 23-го 06 UTC до 24-го 06 UTC
Ветер 15 Узел от западный с порывами до 28 Узел
Видимость 10 км и более
Рассеянная облачность на высоте 2500 фута
изменения
С 23-го 12 UTC до 23-го 14 UTC
Ветер 10 Узел от западный
изменения
С 23-го 19 UTC до 23-го 21 UTC
Ветер 6 Узел от северно-северо-западный

TAF: ESGG 230530Z 2306/2406 27015G28KT 9999 BKN025 BECMG 2312/2314 27010KT BECMG 2319/2321 33006KT

Метеонаблюдения и прогнозы для более 4000 аэропортов (сводки METAR и TAF).

Имеющиеся станции представлены на карте желтыми и красными точками.

Чтобы увидеть название станции, наведите на нее мышь.

Затем щелкните, чтобы увидеть метеонаблюдения и метеопрогнозы.

Управление картой: чтобы увеличить масштаб, щелкните зеленые кнопки с черным крестиком; чтобы уменьшить масштаб, щелкните зеленую кнопку с тире; для просмотра соседних карт щелкайте зеленые стрелки.


METAR-TAF: